Time,TemperatureF,DewpointF,PressureIn,WindDirection,WindDirectionDegrees,WindSpeedMPH,WindSpeedGustMPH,Humidity,HourlyPrecipIn,Conditions,Clouds,dailyrainin,SoftwareType,DateUTC
2013-05-06 00:02:00,35.6,22.3,30.03,East,90,0.0,0.0,58,0.00,CLR,,0.00,WeatherDisplay:10.37,2013-05-06 08:02:00,
2013-05-06 00:07:00,35.4,22.5,30.03,East,90,0.0,0.0,59,0.00,CLR,,0.00,WeatherDisplay:10.37,2013-05-06 08:07:00,
2013-05-06 00:12:00,34.9,22.0,30.03,East,90,0.0,0.0,59,0.00,CLR,,0.00,WeatherDisplay:10.37,2013-05-06 08:12:00,
2013-05-06 00:17:00,34.5,21.7,30.03,East,90,0.0,0.0,59,0.00,CLR,,0.00,WeatherDisplay:10.37,2013-05-06 08:17:00,
2013-05-06 00:22:00,34.3,21.5,30.03,East,90,0.0,0.0,59,0.00,CLR,,0.00,WeatherDisplay:10.37,2013-05-06 08:22:00,
2013-05-06 00:27:00,34.3,22.3,30.03,East,90,0.0,0.0,61,0.00,CLR,,0.00,WeatherDisplay:10.37,2013-05-06 08:27:00,
2013-05-06 00:32:00,34.2,22.5,30.03,East,90,0.0,0.0,62,0.00,CLR,,0.00,WeatherDisplay:10.37,2013-05-06 08:32:00,
2013-05-06 00:37:00,34.2,22.5,30.03,East,90,0.0,0.0,62,0.00,CLR,,0.00,WeatherDisplay:10.37,2013-05-06 08:37:00,
2013-05-06 00:42:00,34.0,22.7,30.03,East,90,0.0,0.0,63,0.00,CLR,,0.00,WeatherDisplay:10.37,2013-05-06 08:42:00,
2013-05-06 00:47:00,33.8,22.5,30.03,East,90,0.0,0.0,63,0.00,CLR,,0.00,WeatherDisplay:10.37,2013-05-06 08:47:00,
2013-05-06 00:52:00,33.6,22.7,30.03,East,90,0.0,0.0,64,0.00,CLR,,0.00,WeatherDisplay:10.37,2013-05-06 08:52:00,
2013-05-06 00:57:00,33.6,23.1,30.03,East,90,0.0,0.0,65,0.00,CLR,,0.00,WeatherDisplay:10.37,2013-05-06 08:57:00,
2013-05-06 01:02:00,33.8,23.3,30.03,SSE,158,0.0,0.0,65,0.00,CLR,,0.00,WeatherDisplay:10.37,2013-05-06 09:02:00,
2013-05-06 01:07:00,33.8,23.6,30.03,SSE,158,0.0,0.0,66,0.00,CLR,,0.00,WeatherDisplay:10.37,2013-05-06 09:07:00,
2013-05-06 01:12:00,34.0,24.2,30.03,SSE,158,0.0,0.0,67,0.00,CLR,,0.00,WeatherDisplay:10.37,2013-05-06 09:12:00,
2013-05-06 01:17:00,34.2,24.7,30.03,SSE,158,0.0,0.0,68,0.00,CLR,,0.00,WeatherDisplay:10.37,2013-05-06 09:17:00,
2013-05-06 01:22:00,34.5,25.4,30.03,SSE,158,0.0,0.0,69,0.00,CLR,,0.00,WeatherDisplay:10.37,2013-05-06 09:22:00,
2013-05-06 01:27:00,34.5,25.4,30.03,SSE,158,0.0,0.0,69,0.00,CLR,,0.00,WeatherDisplay:10.37,2013-05-06 09:27:00,
2013-05-06 01:32:00,34.7,25.6,30.03,SSE,158,0.0,0.0,69,0.00,CLR,,0.00,WeatherDisplay:10.37,2013-05-06 09:32:00,
2013-05-06 01:37:00,34.7,25.6,30.03,SSE,158,0.0,0.0,69,0.00,CLR,,0.00,WeatherDisplay:10.37,2013-05-06 09:37:00,
2013-05-06 01:42:00,34.7,25.2,30.03,South,180,0.0,0.0,68,0.00,CLR,,0.00,WeatherDisplay:10.37,2013-05-06 09:42:00,
2013-05-06 01:47:00,34.5,25.0,30.03,SSW,202,0.0,0.0,68,0.00,CLR,,0.00,WeatherDisplay:10.37,2013-05-06 09:47:00,
2013-05-06 01:52:00,34.5,25.0,30.03,SSW,202,0.0,0.0,68,0.00,CLR,,0.00,WeatherDisplay:10.37,2013-05-06 09:52:00,
2013-05-06 01:57:00,34.5,25.0,30.03,SSW,202,0.9,0.0,68,0.00,CLR,,0.00,WeatherDisplay:10.37,2013-05-06 09:57:00,
2013-05-06 02:02:00,34.5,25.4,30.06,SSW,202,1.4,0.0,69,0.00,CLR,,0.00,WeatherDisplay:10.37,2013-05-06 10:02:00,
2013-05-06 02:07:00,34.3,25.6,30.06,SSW,202,1.4,0.0,70,0.00,CLR,,0.00,WeatherDisplay:10.37,2013-05-06 10:07:00,
2013-05-06 02:12:00,34.5,26.1,30.06,SSW,202,1.4,0.0,71,0.00,CLR,,0.00,WeatherDisplay:10.37,2013-05-06 10:12:00,
2013-05-06 02:17:00,34.5,26.8,30.06,South,180,1.1,0.0,73,0.00,CLR,,0.00,WeatherDisplay:10.37,2013-05-06 10:17:00,
2013-05-06 02:22:00,34.5,27.1,30.06,SSW,202,0.0,0.0,74,0.00,CLR,,0.00,WeatherDisplay:10.37,2013-05-06 10:22:00,
2013-05-06 02:27:00,34.5,26.8,30.06,SSW,202,0.0,0.0,73,0.00,CLR,,0.00,WeatherDisplay:10.37,2013-05-06 10:27:00,
2013-05-06 02:32:00,34.3,26.2,30.06,SSW,202,0.0,0.0,72,0.00,CLR,,0.00,WeatherDisplay:10.37,2013-05-06 10:32:00,
2013-05-06 02:37:00,34.3,26.6,30.06,SSW,202,0.0,0.0,73,0.00,CLR,,0.00,WeatherDisplay:10.37,2013-05-06 10:37:00,
2013-05-06 02:42:00,34.2,26.4,30.06,SSE,158,1.4,1.4,73,0.00,CLR,,0.00,WeatherDisplay:10.37,2013-05-06 10:42:00,
2013-05-06 02:47:00,34.0,26.2,30.06,East,90,1.4,1.4,73,0.00,CLR,,0.00,WeatherDisplay:10.37,2013-05-06 10:47:00,
2013-05-06 02:52:00,33.8,26.1,30.06,SSE,158,1.1,0.0,73,0.00,CLR,,0.00,WeatherDisplay:10.37,2013-05-06 10:52:00,
2013-05-06 02:57:00,33.8,26.4,30.06,SSE,158,0.0,0.0,74,0.00,CLR,,0.00,WeatherDisplay:10.37,2013-05-06 10:57:00,
2013-05-06 03:02:00,33.6,26.2,30.06,SSE,158,0.0,0.0,74,0.00,CLR,,0.00,WeatherDisplay:10.37,2013-05-06 11:02:00,
2013-05-06 03:07:00,33.4,26.4,30.06,SSE,158,0.0,0.0,75,0.00,CLR,,0.00,WeatherDisplay:10.37,2013-05-06 11:07:00,
2013-05-06 03:12:00,33.4,26.4,30.06,SSE,158,0.0,0.0,75,0.00,CLR,,0.00,WeatherDisplay:10.37,2013-05-06 11:12:00,
2013-05-06 03:17:00,33.3,26.2,30.06,SSE,158,0.0,0.0,75,0.00,CLR,,0.00,WeatherDisplay:10.37,2013-05-06 11:17:00,
2013-05-06 03:22:00,33.1,26.0,30.06,SSE,158,0.0,0.0,75,0.00,CLR,,0.00,WeatherDisplay:10.37,2013-05-06 11:22:00,
2013-05-06 03:27:00,32.9,25.8,30.06,SSE,158,0.0,0.0,75,0.00,CLR,,0.00,WeatherDisplay:10.37,2013-05-06 11:27:00,
2013-05-06 03:32:00,32.7,26.0,30.06,SSE,158,0.0,0.0,76,0.00,CLR,,0.00,WeatherDisplay:10.37,2013-05-06 11:32:00,
2013-05-06 03:37:00,32.7,26.0,30.06,SSW,202,0.0,0.0,76,0.00,CLR,,0.00,WeatherDisplay:10.37,2013-05-06 11:37:00,
2013-05-06 03:42:00,32.9,26.2,30.06,SW,225,0.0,0.0,76,0.00,CLR,,0.00,WeatherDisplay:10.37,2013-05-06 11:42:00,
2013-05-06 03:47:00,32.9,26.2,30.06,SW,225,0.0,0.0,76,0.00,CLR,,0.00,WeatherDisplay:10.37,2013-05-06 11:47:00,
2013-05-06 03:52:00,32.7,25.7,30.06,SW,225,0.0,0.0,75,0.00,CLR,,0.00,WeatherDisplay:10.37,2013-05-06 11:52:00,
2013-05-06 03:57:00,32.5,25.5,30.06,SW,225,0.0,0.0,75,0.00,CLR,,0.00,WeatherDisplay:10.37,2013-05-06 11:57:00,
2013-05-06 04:02:00,32.5,25.5,30.06,SW,225,0.0,0.0,75,0.00,CLR,,0.00,WeatherDisplay:10.37,2013-05-06 12:02:00,
2013-05-06 04:07:00,32.5,25.5,30.06,SW,225,0.0,0.0,75,0.00,CLR,,0.00,WeatherDisplay:10.37,2013-05-06 12:07:00,
2013-05-06 04:12:00,32.5,25.8,30.06,SSW,202,0.0,0.0,76,0.00,CLR,,0.00,WeatherDisplay:10.37,2013-05-06 12:12:00,
2013-05-06 04:17:00,32.7,26.0,30.06,SSW,202,0.0,0.0,76,0.00,CLR,,0.00,WeatherDisplay:10.37,2013-05-06 12:17:00,
2013-05-06 04:22:00,32.7,26.0,30.06,SSW,202,0.0,0.0,76,0.00,CLR,,0.00,WeatherDisplay:10.37,2013-05-06 12:22:00,
2013-05-06 04:27:00,32.7,25.7,30.06,SSW,202,0.0,0.0,75,0.00,CLR,,0.00,WeatherDisplay:10.37,2013-05-06 12:27:00,
2013-05-06 04:32:00,32.7,25.7,30.06,SSW,202,0.0,0.0,75,0.00,CLR,,0.00,WeatherDisplay:10.37,2013-05-06 12:32:00,
2013-05-06 04:37:00,32.7,25.7,30.06,SSW,202,0.0,0.0,75,0.00,CLR,,0.00,WeatherDisplay:10.37,2013-05-06 12:37:00,
2013-05-06 04:42:00,32.9,25.8,30.06,SSW,202,0.0,0.0,75,0.00,CLR,,0.00,WeatherDisplay:10.37,2013-05-06 12:42:00,
2013-05-06 04:47:00,32.7,25.7,30.06,SE,135,0.0,0.0,75,0.00,CLR,,0.00,WeatherDisplay:10.37,2013-05-06 12:47:00,
2013-05-06 04:52:00,32.7,25.7,30.06,SSW,202,0.0,0.0,75,0.00,CLR,,0.00,WeatherDisplay:10.37,2013-05-06 12:52:00,
2013-05-06 04:57:00,32.9,25.8,30.06,South,180,0.0,0.0,75,0.00,CLR,,0.00,WeatherDisplay:10.37,2013-05-06 12:57:00,
2013-05-06 05:02:00,32.9,25.8,30.06,South,180,0.0,0.0,75,0.00,CLR,,0.00,WeatherDisplay:10.37,2013-05-06 13:02:00,
2013-05-06 05:07:00,33.1,26.0,30.06,South,180,0.0,0.0,75,0.00,CLR,,0.00,WeatherDisplay:10.37,2013-05-06 13:07:00,
2013-05-06 05:12:00,33.1,25.7,30.06,South,180,0.0,0.0,74,0.00,CLR,,0.00,WeatherDisplay:10.37,2013-05-06 13:12:00,
2013-05-06 05:17:00,33.1,25.7,30.06,South,180,0.0,0.0,74,0.00,CLR,,0.00,WeatherDisplay:10.37,2013-05-06 13:17:00,
2013-05-06 05:22:00,33.1,25.4,30.06,South,180,0.0,0.0,73,0.00,CLR,,0.00,WeatherDisplay:10.37,2013-05-06 13:22:00,
2013-05-06 05:27:00,33.1,25.4,30.06,South,180,0.0,0.0,73,0.00,CLR,,0.00,WeatherDisplay:10.37,2013-05-06 13:27:00,
2013-05-06 05:32:00,33.1,25.4,30.06,South,180,0.0,0.0,73,0.00,CLR,,0.00,WeatherDisplay:10.37,2013-05-06 13:32:00,
2013-05-06 05:37:00,32.9,25.2,30.06,SE,135,0.0,0.0,73,0.00,CLR,,0.00,WeatherDisplay:10.37,2013-05-06 13:37:00,
2013-05-06 05:42:00,32.9,25.5,30.06,SE,135,0.0,0.0,74,0.00,CLR,,0.00,WeatherDisplay:10.37,2013-05-06 13:42:00,
2013-05-06 05:47:00,32.9,25.5,30.06,SE,135,0.0,0.0,74,0.00,CLR,,0.00,WeatherDisplay:10.37,2013-05-06 13:47:00,
2013-05-06 05:52:00,32.7,25.3,30.06,SE,135,0.0,0.0,74,0.00,CLR,,0.00,WeatherDisplay:10.37,2013-05-06 13:52:00,
2013-05-06 05:57:00,32.9,25.5,30.06,SE,135,0.0,0.0,74,0.00,CLR,,0.00,WeatherDisplay:10.37,2013-05-06 13:57:00,
2013-05-06 06:02:00,33.1,25.7,30.06,SE,135,0.0,0.0,74,0.00,CLR,,0.00,WeatherDisplay:10.37,2013-05-06 14:02:00,
2013-05-06 06:07:00,33.3,25.9,30.06,SE,135,0.0,0.0,74,0.00,CLR,,0.00,WeatherDisplay:10.37,2013-05-06 14:07:00,
2013-05-06 06:12:00,33.4,26.0,30.06,SE,135,0.0,0.0,74,0.00,CLR,,0.00,WeatherDisplay:10.37,2013-05-06 14:12:00,
2013-05-06 06:17:00,33.6,26.2,30.06,SE,135,0.0,0.0,74,0.00,CLR,,0.00,WeatherDisplay:10.37,2013-05-06 14:17:00,
2013-05-06 06:22:00,34.0,26.6,30.06,SE,135,0.0,0.0,74,0.00,CLR,,0.00,WeatherDisplay:10.37,2013-05-06 14:22:00,
2013-05-06 06:27:00,34.2,26.7,30.06,SE,135,0.0,0.0,74,0.00,CLR,,0.00,WeatherDisplay:10.37,2013-05-06 14:27:00,
2013-05-06 06:32:00,34.3,26.6,30.06,SE,135,0.0,0.0,73,0.00,CLR,,0.00,WeatherDisplay:10.37,2013-05-06 14:32:00,
2013-05-06 06:37:00,34.5,27.1,30.06,SE,135,0.0,0.0,74,0.00,CLR,,0.00,WeatherDisplay:10.37,2013-05-06 14:37:00,
2013-05-06 06:42:00,34.7,26.9,30.06,SE,135,0.0,0.0,73,0.00,CLR,,0.00,WeatherDisplay:10.37,2013-05-06 14:42:00,
2013-05-06 06:47:00,35.1,27.3,30.09,SE,135,0.0,0.0,73,0.00,CLR,,0.00,WeatherDisplay:10.37,2013-05-06 14:47:00,
2013-05-06 06:52:00,35.4,27.6,30.09,SE,135,0.0,0.0,73,0.00,CLR,,0.00,WeatherDisplay:10.37,2013-05-06 14:52:00,
2013-05-06 06:57:00,35.6,27.8,30.09,SE,135,0.0,0.0,73,0.00,CLR,,0.00,WeatherDisplay:10.37,2013-05-06 14:57:00,
2013-05-06 07:02:00,35.8,28.0,30.09,SE,135,0.0,0.0,73,0.00,CLR,,0.00,WeatherDisplay:10.37,2013-05-06 15:02:00,
2013-05-06 07:07:00,36.0,27.8,30.09,SE,135,0.0,0.0,72,0.00,CLR,,0.00,WeatherDisplay:10.37,2013-05-06 15:07:00,
2013-05-06 07:12:00,36.3,28.2,30.09,SE,135,0.0,0.0,72,0.00,CLR,,0.00,WeatherDisplay:10.37,2013-05-06 15:12:00,
2013-05-06 07:17:00,36.5,28.3,30.09,SE,135,0.0,0.0,72,0.00,CLR,,0.00,WeatherDisplay:10.37,2013-05-06 15:17:00,
2013-05-06 07:22:00,36.9,28.7,30.09,SE,135,0.0,0.0,72,0.00,CLR,,0.00,WeatherDisplay:10.37,2013-05-06 15:22:00,
2013-05-06 07:27:00,37.0,28.5,30.09,SE,135,0.0,0.0,71,0.00,CLR,,0.00,WeatherDisplay:10.37,2013-05-06 15:27:00,
2013-05-06 07:32:00,37.6,28.7,30.09,SE,135,0.0,0.0,70,0.00,CLR,,0.00,WeatherDisplay:10.37,2013-05-06 15:32:00,
2013-05-06 07:37:00,37.9,29.0,30.09,SE,135,0.0,0.0,70,0.00,CLR,,0.00,WeatherDisplay:10.37,2013-05-06 15:37:00,
2013-05-06 07:42:00,38.1,28.8,30.09,SE,135,0.0,0.0,69,0.00,CLR,,0.00,WeatherDisplay:10.37,2013-05-06 15:42:00,
2013-05-06 07:47:00,38.7,28.6,30.09,ESE,112,0.0,0.0,67,0.00,CLR,,0.00,WeatherDisplay:10.37,2013-05-06 15:47:00,
2013-05-06 07:52:00,38.8,28.8,30.09,ESE,112,0.0,0.0,67,0.00,CLR,,0.00,WeatherDisplay:10.37,2013-05-06 15:52:00,
2013-05-06 07:57:00,39.4,28.6,30.09,ESE,112,0.0,0.0,65,0.00,CLR,,0.00,WeatherDisplay:10.37,2013-05-06 15:57:00,
2013-05-06 08:02:00,39.9,29.1,30.09,ESE,112,0.0,0.0,65,0.00,CLR,,0.00,WeatherDisplay:10.37,2013-05-06 16:02:00,
2013-05-06 08:07:00,40.3,28.7,30.09,ESE,112,0.0,0.0,63,0.00,CLR,,0.00,WeatherDisplay:10.37,2013-05-06 16:07:00,
2013-05-06 08:12:00,40.6,27.8,30.09,ESE,112,0.0,0.0,60,0.00,CLR,,0.00,WeatherDisplay:10.37,2013-05-06 16:12:00,
2013-05-06 08:17:00,41.0,26.9,30.09,ESE,112,0.0,0.0,57,0.00,CLR,,0.00,WeatherDisplay:10.37,2013-05-06 16:17:00,
2013-05-06 08:22:00,41.2,26.2,30.09,ESE,112,0.0,0.0,55,0.00,CLR,,0.00,WeatherDisplay:10.37,2013-05-06 16:22:00,
2013-05-06 08:27:00,41.2,25.8,30.09,ESE,112,0.0,0.0,54,0.00,CLR,,0.00,WeatherDisplay:10.37,2013-05-06 16:27:00,
2013-05-06 08:32:00,41.4,25.0,30.09,ESE,112,0.0,0.0,52,0.00,CLR,,0.00,WeatherDisplay:10.37,2013-05-06 16:32:00,
2013-05-06 08:37:00,41.4,24.6,30.09,ESE,112,0.0,0.0,51,0.00,CLR,,0.00,WeatherDisplay:10.37,2013-05-06 16:37:00,
2013-05-06 08:42:00,41.7,25.4,30.09,ESE,112,0.0,0.0,52,0.00,CLR,,0.00,WeatherDisplay:10.37,2013-05-06 16:42:00,
2013-05-06 08:47:00,41.7,24.9,30.09,ESE,112,0.0,0.0,51,0.00,CLR,,0.00,WeatherDisplay:10.37,2013-05-06 16:47:00,
2013-05-06 08:52:00,41.7,23.9,30.09,ESE,112,0.0,0.0,49,0.00,CLR,,0.00,WeatherDisplay:10.37,2013-05-06 16:52:00,
2013-05-06 08:57:00,41.9,24.6,30.09,ESE,112,0.0,0.0,50,0.00,CLR,,0.00,WeatherDisplay:10.37,2013-05-06 16:57:00,
2013-05-06 09:02:00,42.4,25.6,30.09,ESE,112,0.0,0.0,51,0.00,CLR,,0.00,WeatherDisplay:10.37,2013-05-06 17:02:00,
2013-05-06 09:07:00,43.0,26.1,30.09,ESE,112,0.0,0.0,51,0.00,CLR,,0.00,WeatherDisplay:10.37,2013-05-06 17:07:00,
2013-05-06 09:12:00,43.3,25.9,30.09,ESE,112,0.0,0.0,50,0.00,CLR,,0.00,WeatherDisplay:10.37,2013-05-06 17:12:00,
2013-05-06 09:17:00,43.3,25.4,30.09,ESE,112,0.0,0.0,49,0.00,CLR,,0.00,WeatherDisplay:10.37,2013-05-06 17:17:00,
2013-05-06 09:22:00,43.5,25.1,30.09,ESE,112,0.0,0.0,48,0.00,CLR,,0.00,WeatherDisplay:10.37,2013-05-06 17:22:00,
2013-05-06 09:27:00,44.2,26.3,30.09,ESE,112,0.0,0.0,49,0.00,CLR,,0.00,WeatherDisplay:10.37,2013-05-06 17:27:00,
2013-05-06 09:32:00,45.0,27.4,30.09,ESE,112,0.0,0.0,50,0.00,CLR,,0.00,WeatherDisplay:10.37,2013-05-06 17:32:00,
2013-05-06 09:37:00,44.8,25.2,30.09,ESE,112,0.0,0.0,46,0.00,CLR,,0.00,WeatherDisplay:10.37,2013-05-06 17:37:00,
2013-05-06 09:42:00,45.0,25.9,30.09,ESE,112,0.0,0.0,47,0.00,CLR,,0.00,WeatherDisplay:10.37,2013-05-06 17:42:00,
2013-05-06 09:47:00,45.3,26.8,30.09,ESE,112,0.0,0.0,48,0.00,CLR,,0.00,WeatherDisplay:10.37,2013-05-06 17:47:00,
2013-05-06 09:52:00,45.3,26.8,30.09,ESE,112,0.0,0.0,48,0.00,CLR,,0.00,WeatherDisplay:10.37,2013-05-06 17:52:00,
2013-05-06 09:57:00,45.7,26.6,30.09,ESE,112,0.0,0.0,47,0.00,CLR,,0.00,WeatherDisplay:10.37,2013-05-06 17:57:00,
2013-05-06 10:02:00,45.9,25.2,30.09,ESE,112,0.0,0.0,44,0.00,CLR,,0.00,WeatherDisplay:10.37,2013-05-06 18:02:00,
2013-05-06 10:07:00,45.5,25.9,30.09,ESE,112,0.0,0.0,46,0.00,CLR,,0.00,WeatherDisplay:10.37,2013-05-06 18:07:00,
2013-05-06 10:12:00,45.3,25.7,30.09,ESE,112,0.0,0.0,46,0.00,CLR,,0.00,WeatherDisplay:10.37,2013-05-06 18:12:00,
2013-05-06 10:17:00,46.0,25.9,30.09,ESE,112,0.0,0.0,45,0.00,CLR,,0.00,WeatherDisplay:10.37,2013-05-06 18:17:00,
2013-05-06 10:22:00,46.2,27.1,30.09,ESE,112,0.0,0.0,47,0.00,CLR,,0.00,WeatherDisplay:10.37,2013-05-06 18:22:00,
2013-05-06 10:27:00,46.2,27.1,30.09,ESE,112,0.0,0.0,47,0.00,CLR,,0.00,WeatherDisplay:10.37,2013-05-06 18:27:00,
2013-05-06 10:32:00,46.8,27.0,30.09,ESE,112,0.0,0.0,46,0.00,CLR,,0.00,WeatherDisplay:10.37,2013-05-06 18:32:00,
2013-05-06 10:37:00,46.4,26.7,30.09,ESE,112,0.0,0.0,46,0.00,CLR,,0.00,WeatherDisplay:10.37,2013-05-06 18:37:00,
2013-05-06 10:42:00,46.6,26.4,30.09,ESE,112,0.0,0.0,45,0.00,CLR,,0.00,WeatherDisplay:10.37,2013-05-06 18:42:00,
2013-05-06 10:47:00,46.8,27.0,30.09,ESE,112,0.0,0.0,46,0.00,CLR,,0.00,WeatherDisplay:10.37,2013-05-06 18:47:00,
2013-05-06 10:52:00,46.6,26.9,30.09,ESE,112,0.0,0.0,46,0.00,CLR,,0.00,WeatherDisplay:10.37,2013-05-06 18:52:00,
2013-05-06 10:57:00,46.8,27.0,30.09,ESE,112,0.0,0.0,46,0.00,CLR,,0.00,WeatherDisplay:10.37,2013-05-06 18:57:00,
2013-05-06 11:02:00,47.3,27.5,30.09,ESE,112,0.0,0.0,46,0.00,CLR,,0.00,WeatherDisplay:10.37,2013-05-06 19:02:00,
2013-05-06 11:07:00,48.2,27.8,30.09,ESE,112,0.0,0.0,45,0.00,CLR,,0.00,WeatherDisplay:10.37,2013-05-06 19:07:00,
2013-05-06 11:12:00,48.6,28.2,30.09,ESE,112,0.0,0.0,45,0.00,CLR,,0.00,WeatherDisplay:10.37,2013-05-06 19:12:00,
2013-05-06 11:17:00,49.5,29.0,30.09,ESE,112,0.0,0.0,45,0.00,CLR,,0.00,WeatherDisplay:10.37,2013-05-06 19:17:00,
2013-05-06 11:22:00,49.8,28.8,30.09,ESE,112,0.0,0.0,44,0.00,CLR,,0.00,WeatherDisplay:10.37,2013-05-06 19:22:00,
2013-05-06 11:27:00,49.3,27.1,30.09,ESE,112,0.0,0.0,42,0.00,CLR,,0.00,WeatherDisplay:10.37,2013-05-06 19:27:00,
2013-05-06 11:32:00,50.4,28.1,30.09,ESE,112,0.0,0.0,42,0.00,CLR,,0.00,WeatherDisplay:10.37,2013-05-06 19:32:00,
2013-05-06 11:37:00,50.5,28.3,30.09,ESE,112,0.0,0.0,42,0.00,CLR,,0.00,WeatherDisplay:10.37,2013-05-06 19:37:00,
2013-05-06 11:42:00,50.7,28.4,30.09,ESE,112,0.0,0.0,42,0.00,CLR,,0.00,WeatherDisplay:10.37,2013-05-06 19:42:00,
2013-05-06 11:47:00,51.4,28.5,30.09,ESE,112,0.0,0.0,41,0.00,CLR,,0.00,WeatherDisplay:10.37,2013-05-06 19:47:00,
2013-05-06 11:52:00,50.7,28.4,30.09,ESE,112,0.0,0.0,42,0.00,CLR,,0.00,WeatherDisplay:10.37,2013-05-06 19:52:00,
2013-05-06 11:57:00,50.2,28.5,30.09,ESE,112,0.0,0.0,43,0.00,CLR,,0.00,WeatherDisplay:10.37,2013-05-06 19:57:00,
2013-05-06 12:02:00,48.7,27.8,30.09,ESE,112,0.0,0.0,44,0.00,CLR,,0.00,WeatherDisplay:10.37,2013-05-06 20:02:00,
2013-05-06 12:07:00,48.0,27.7,30.09,ESE,112,0.0,0.0,45,0.00,CLR,,0.00,WeatherDisplay:10.37,2013-05-06 20:07:00,
2013-05-06 12:12:00,48.2,28.4,30.09,ESE,112,0.0,0.0,46,0.00,CLR,,0.00,WeatherDisplay:10.37,2013-05-06 20:12:00,
2013-05-06 12:17:00,47.7,28.4,30.09,ESE,112,0.0,0.0,47,0.00,CLR,,0.00,WeatherDisplay:10.37,2013-05-06 20:17:00,
2013-05-06 12:22:00,47.3,28.6,30.09,ESE,112,0.0,0.0,48,0.00,CLR,,0.00,WeatherDisplay:10.37,2013-05-06 20:22:00,
2013-05-06 12:27:00,47.8,29.1,30.09,ESE,112,0.0,0.0,48,0.00,CLR,,0.00,WeatherDisplay:10.37,2013-05-06 20:27:00,
2013-05-06 12:32:00,48.4,29.6,30.09,ESE,112,0.0,0.0,48,0.00,CLR,,0.00,WeatherDisplay:10.37,2013-05-06 20:32:00,
2013-05-06 12:37:00,48.6,29.7,30.09,ESE,112,0.0,0.0,48,0.00,CLR,,0.00,WeatherDisplay:10.37,2013-05-06 20:37:00,
2013-05-06 12:42:00,48.9,30.1,30.09,ESE,112,0.0,0.0,48,0.00,CLR,,0.00,WeatherDisplay:10.37,2013-05-06 20:42:00,
2013-05-06 12:47:00,48.7,29.9,30.09,ESE,112,0.0,0.0,48,0.00,CLR,,0.00,WeatherDisplay:10.37,2013-05-06 20:47:00,
2013-05-06 12:52:00,48.0,29.7,30.09,ESE,112,0.0,0.0,49,0.00,CLR,,0.00,WeatherDisplay:10.37,2013-05-06 20:52:00,
2013-05-06 12:57:00,48.0,29.7,30.09,ESE,112,0.0,0.0,49,0.00,CLR,,0.00,WeatherDisplay:10.37,2013-05-06 20:57:00,
2013-05-06 13:02:00,48.4,29.6,30.09,ESE,112,0.0,0.0,48,0.00,CLR,,0.00,WeatherDisplay:10.37,2013-05-06 21:02:00,
2013-05-06 13:07:00,48.9,30.6,30.09,ESE,112,0.0,0.0,49,0.00,CLR,,0.00,WeatherDisplay:10.37,2013-05-06 21:07:00,
2013-05-06 13:12:00,49.5,31.1,30.09,ESE,112,0.0,0.0,49,0.00,CLR,,0.00,WeatherDisplay:10.37,2013-05-06 21:12:00,
2013-05-06 13:17:00,49.6,30.7,30.09,ESE,112,0.0,0.0,48,0.00,CLR,,0.00,WeatherDisplay:10.37,2013-05-06 21:17:00,
2013-05-06 13:22:00,49.5,31.1,30.09,ESE,112,0.0,0.0,49,0.00,CLR,,0.00,WeatherDisplay:10.37,2013-05-06 21:22:00,
2013-05-06 13:27:00,48.0,29.2,30.09,ESE,112,0.0,0.0,48,0.00,CLR,,0.00,WeatherDisplay:10.37,2013-05-06 21:27:00,
2013-05-06 13:32:00,47.5,28.7,30.09,ESE,112,0.0,0.0,48,0.00,CLR,,0.00,WeatherDisplay:10.37,2013-05-06 21:32:00,
2013-05-06 13:37:00,48.7,30.9,30.09,ESE,112,0.0,0.0,50,0.00,CLR,,0.00,WeatherDisplay:10.37,2013-05-06 21:37:00,
2013-05-06 13:42:00,48.7,30.9,30.09,ESE,112,0.0,0.0,50,0.00,CLR,,0.00,WeatherDisplay:10.37,2013-05-06 21:42:00,
2013-05-06 13:47:00,48.7,30.4,30.09,ESE,112,0.0,0.0,49,0.00,CLR,,0.00,WeatherDisplay:10.37,2013-05-06 21:47:00,
2013-05-06 13:52:00,49.1,30.2,30.09,ESE,112,0.0,0.0,48,0.00,CLR,,0.00,WeatherDisplay:10.37,2013-05-06 21:52:00,
2013-05-06 13:57:00,49.1,29.7,30.09,ESE,112,0.0,0.0,47,0.00,CLR,,0.00,WeatherDisplay:10.37,2013-05-06 21:57:00,
2013-05-06 14:02:00,48.9,30.1,30.09,ESE,112,0.0,0.0,48,0.00,CLR,,0.00,WeatherDisplay:10.37,2013-05-06 22:02:00,
2013-05-06 14:07:00,48.2,28.9,30.09,ESE,112,0.0,0.0,47,0.00,CLR,,0.00,WeatherDisplay:10.37,2013-05-06 22:07:00,
2013-05-06 14:12:00,48.2,27.8,30.09,ESE,112,0.0,0.0,45,0.00,CLR,,0.00,WeatherDisplay:10.37,2013-05-06 22:12:00,
2013-05-06 14:17:00,47.5,27.2,30.09,ESE,112,0.0,0.0,45,0.00,CLR,,0.00,WeatherDisplay:10.37,2013-05-06 22:17:00,
2013-05-06 14:22:00,47.3,25.9,30.09,ESE,112,0.0,0.0,43,0.00,CLR,,0.00,WeatherDisplay:10.37,2013-05-06 22:22:00,
2013-05-06 14:27:00,48.0,26.6,30.09,ESE,112,0.0,0.0,43,0.00,CLR,,0.00,WeatherDisplay:10.37,2013-05-06 22:27:00,
2013-05-06 14:32:00,48.2,26.2,30.09,ESE,112,0.0,0.0,42,0.00,CLR,,0.00,WeatherDisplay:10.37,2013-05-06 22:32:00,
2013-05-06 14:37:00,48.2,26.2,30.09,ESE,112,0.0,0.0,42,0.00,CLR,,0.00,WeatherDisplay:10.37,2013-05-06 22:37:00,
2013-05-06 14:42:00,48.0,26.0,30.09,ESE,112,0.0,0.0,42,0.00,CLR,,0.00,WeatherDisplay:10.37,2013-05-06 22:42:00,
2013-05-06 14:47:00,47.8,26.4,30.09,ESE,112,0.0,0.0,43,0.00,CLR,,0.00,WeatherDisplay:10.37,2013-05-06 22:47:00,
2013-05-06 14:52:00,48.0,26.6,30.09,ESE,112,0.0,0.0,43,0.00,CLR,,0.00,WeatherDisplay:10.37,2013-05-06 22:52:00,
2013-05-06 14:57:00,47.7,25.1,30.09,ESE,112,0.0,0.0,41,0.00,CLR,,0.00,WeatherDisplay:10.37,2013-05-06 22:57:00,
2013-05-06 15:02:00,47.3,25.3,30.09,ESE,112,0.0,0.0,42,0.00,CLR,,0.00,WeatherDisplay:10.37,2013-05-06 23:02:00,
2013-05-06 15:07:00,48.4,26.3,30.09,ESE,112,0.0,0.0,42,0.00,CLR,,0.00,WeatherDisplay:10.37,2013-05-06 23:07:00,
2013-05-06 15:12:00,48.7,26.1,30.09,ESE,112,0.0,0.0,41,0.00,CLR,,0.00,WeatherDisplay:10.37,2013-05-06 23:12:00,
2013-05-06 15:17:00,48.6,25.9,30.09,ESE,112,0.0,0.0,41,0.00,CLR,,0.00,WeatherDisplay:10.37,2013-05-06 23:17:00,
2013-05-06 15:22:00,48.2,25.0,30.09,ESE,112,0.0,0.0,40,0.00,CLR,,0.00,WeatherDisplay:10.37,2013-05-06 23:22:00,
2013-05-06 15:28:00,48.6,25.9,30.09,ESE,112,0.0,0.0,41,0.00,CLR,,0.00,WeatherDisplay:10.37,2013-05-06 23:28:00,
2013-05-06 15:33:00,48.7,27.2,30.09,ESE,112,0.0,0.0,43,0.00,CLR,,0.00,WeatherDisplay:10.37,2013-05-06 23:33:00,
2013-05-06 15:38:00,48.4,26.9,30.09,ESE,112,0.0,0.0,43,0.00,CLR,,0.00,WeatherDisplay:10.37,2013-05-06 23:38:00,
2013-05-06 15:43:00,47.8,27.0,30.09,ESE,112,0.0,0.0,44,0.00,CLR,,0.00,WeatherDisplay:10.37,2013-05-06 23:43:00,
2013-05-06 15:48:00,47.3,27.5,30.09,ESE,112,0.0,0.0,46,0.00,CLR,,0.00,WeatherDisplay:10.37,2013-05-06 23:48:00,
2013-05-06 15:53:00,47.3,28.6,30.09,ESE,112,0.0,0.0,48,0.00,CLR,,0.00,WeatherDisplay:10.37,2013-05-06 23:53:00,
2013-05-06 15:58:00,47.5,29.7,30.09,ESE,112,0.0,0.0,50,0.00,CLR,,0.00,WeatherDisplay:10.37,2013-05-06 23:58:00,
2013-05-06 16:03:00,47.8,29.6,30.09,ESE,112,0.0,0.0,49,0.00,CLR,,0.00,WeatherDisplay:10.37,2013-05-07 00:03:00,
2013-05-06 16:08:00,49.3,29.9,30.09,ESE,112,0.0,0.0,47,0.00,CLR,,0.00,WeatherDisplay:10.37,2013-05-07 00:08:00,
2013-05-06 16:13:00,49.1,28.7,30.09,ESE,112,0.0,0.0,45,0.00,CLR,,0.00,WeatherDisplay:10.37,2013-05-07 00:13:00,
2013-05-06 16:18:00,49.3,29.9,30.09,ESE,112,0.0,0.0,47,0.00,CLR,,0.00,WeatherDisplay:10.37,2013-05-07 00:18:00,
2013-05-06 16:23:00,48.7,29.4,30.09,ESE,112,0.0,0.0,47,0.00,CLR,,0.00,WeatherDisplay:10.37,2013-05-07 00:23:00,
2013-05-06 16:28:00,48.0,29.2,30.09,ESE,112,0.0,0.0,48,0.00,CLR,,0.00,WeatherDisplay:10.37,2013-05-07 00:28:00,
2013-05-06 16:33:00,47.3,29.6,30.09,ESE,112,0.0,0.0,50,0.00,CLR,,0.00,WeatherDisplay:10.37,2013-05-07 00:33:00,
2013-05-06 16:38:00,47.3,29.1,30.09,ESE,112,0.0,0.0,49,0.00,CLR,,0.00,WeatherDisplay:10.37,2013-05-07 00:38:00,
2013-05-06 16:43:00,48.0,29.7,30.09,ESE,112,0.0,0.0,49,0.00,CLR,,0.00,WeatherDisplay:10.37,2013-05-07 00:43:00,
2013-05-06 16:48:00,48.6,29.7,30.09,ESE,112,0.0,0.0,48,0.00,CLR,,0.00,WeatherDisplay:10.37,2013-05-07 00:48:00,
2013-05-06 16:53:00,48.9,29.6,30.09,ESE,112,0.0,0.0,47,0.00,CLR,,0.00,WeatherDisplay:10.37,2013-05-07 00:53:00,
2013-05-06 16:58:00,49.3,28.8,30.09,ESE,112,0.0,0.0,45,0.00,CLR,,0.00,WeatherDisplay:10.37,2013-05-07 00:58:00,
2013-05-06 17:03:00,48.9,27.4,30.09,ESE,112,0.0,0.0,43,0.00,CLR,,0.00,WeatherDisplay:10.37,2013-05-07 01:03:00,
2013-05-06 17:08:00,49.5,27.9,30.09,ESE,112,0.0,0.0,43,0.00,CLR,,0.00,WeatherDisplay:10.37,2013-05-07 01:08:00,
2013-05-06 17:13:00,48.6,25.9,30.09,WNW,292,2.9,2.9,41,0.00,CLR,,0.00,WeatherDisplay:10.37,2013-05-07 01:13:00,
2013-05-06 17:18:00,48.6,25.9,30.09,WNW,292,2.9,2.9,41,0.00,CLR,,0.00,WeatherDisplay:10.37,2013-05-07 01:18:00,
2013-05-06 17:23:00,48.4,25.7,30.09,WNW,292,2.3,2.3,41,0.00,CLR,,0.00,WeatherDisplay:10.37,2013-05-07 01:23:00,
2013-05-06 17:28:00,48.4,25.7,30.09,WNW,292,1.6,2.4,41,0.00,CLR,,0.00,WeatherDisplay:10.37,2013-05-07 01:28:00,
2013-05-06 17:33:00,47.7,25.7,30.09,North,0,2.3,2.6,42,0.00,CLR,,0.00,WeatherDisplay:10.37,2013-05-07 01:33:00,
2013-05-06 17:38:00,46.8,24.9,30.09,North,0,2.3,2.6,42,0.00,CLR,,0.00,WeatherDisplay:10.37,2013-05-07 01:38:00,
2013-05-06 17:43:00,46.8,24.9,30.09,North,0,2.3,2.6,42,0.00,CLR,,0.00,WeatherDisplay:10.37,2013-05-07 01:43:00,
2013-05-06 17:48:00,46.8,25.4,30.09,North,0,2.3,2.6,43,0.00,CLR,,0.00,WeatherDisplay:10.37,2013-05-07 01:48:00,
2013-05-06 17:53:00,47.5,26.6,30.09,West,270,2.3,0.0,44,0.00,CLR,,0.00,WeatherDisplay:10.37,2013-05-07 01:53:00,
2013-05-06 17:58:00,47.5,26.6,30.09,WNW,292,0.0,0.0,44,0.00,CLR,,0.00,WeatherDisplay:10.37,2013-05-07 01:58:00,
2013-05-06 18:03:00,47.1,25.7,30.09,NW,315,2.3,2.3,43,0.00,CLR,,0.00,WeatherDisplay:10.37,2013-05-07 02:03:00,
2013-05-06 18:08:00,47.1,25.7,30.09,WSW,248,0.0,0.0,43,0.00,CLR,,0.00,WeatherDisplay:10.37,2013-05-07 02:08:00,
2013-05-06 18:13:00,46.8,25.4,30.09,WSW,248,0.0,0.0,43,0.00,CLR,,0.00,WeatherDisplay:10.37,2013-05-07 02:13:00,
2013-05-06 18:18:00,46.0,25.3,30.09,WSW,248,0.0,0.0,44,0.00,CLR,,0.00,WeatherDisplay:10.37,2013-05-07 02:18:00,
2013-05-06 18:23:00,45.7,25.0,30.09,WSW,248,0.0,0.0,44,0.00,CLR,,0.00,WeatherDisplay:10.37,2013-05-07 02:23:00,
2013-05-06 18:28:00,45.5,25.9,30.09,WSW,248,0.0,0.0,46,0.00,CLR,,0.00,WeatherDisplay:10.37,2013-05-07 02:28:00,
2013-05-06 18:33:00,45.9,26.7,30.09,WSW,248,0.0,0.0,47,0.00,CLR,,0.00,WeatherDisplay:10.37,2013-05-07 02:33:00,
2013-05-06 18:38:00,46.2,27.1,30.09,WSW,248,0.0,0.0,47,0.00,CLR,,0.00,WeatherDisplay:10.37,2013-05-07 02:38:00,
2013-05-06 18:43:00,46.0,27.4,30.09,WSW,248,0.0,0.0,48,0.00,CLR,,0.00,WeatherDisplay:10.37,2013-05-07 02:43:00,
2013-05-06 18:48:00,45.9,27.3,30.12,WSW,248,0.0,0.0,48,0.00,CLR,,0.00,WeatherDisplay:10.37,2013-05-07 02:48:00,
2013-05-06 18:53:00,45.3,27.3,30.12,WSW,248,0.0,0.0,49,0.00,CLR,,0.00,WeatherDisplay:10.37,2013-05-07 02:53:00,
2013-05-06 18:58:00,45.3,27.3,30.12,WSW,248,2.4,2.4,49,0.00,CLR,,0.00,WeatherDisplay:10.37,2013-05-07 02:58:00,
2013-05-06 19:03:00,45.1,27.1,30.12,NW,315,0.0,0.0,49,0.00,CLR,,0.00,WeatherDisplay:10.37,2013-05-07 03:03:00,
2013-05-06 19:08:00,45.1,27.1,30.12,NW,315,0.0,0.0,49,0.00,CLR,,0.00,WeatherDisplay:10.37,2013-05-07 03:08:00,
2013-05-06 19:13:00,45.1,27.1,30.12,NW,315,0.0,0.0,49,0.00,CLR,,0.00,WeatherDisplay:10.37,2013-05-07 03:13:00,
2013-05-06 19:18:00,44.8,26.8,30.12,WNW,292,1.6,1.6,49,0.00,CLR,,0.00,WeatherDisplay:10.37,2013-05-07 03:18:00,
2013-05-06 19:23:00,44.4,26.4,30.12,WNW,292,1.6,1.6,49,0.00,CLR,,0.00,WeatherDisplay:10.37,2013-05-07 03:23:00,
2013-05-06 19:28:00,44.2,26.3,30.12,WNW,292,1.6,1.6,49,0.00,CLR,,0.00,WeatherDisplay:10.37,2013-05-07 03:28:00,
2013-05-06 19:33:00,44.1,26.1,30.12,West,270,1.1,0.0,49,0.00,CLR,,0.00,WeatherDisplay:10.37,2013-05-07 03:33:00,
2013-05-06 19:38:00,44.1,26.1,30.12,West,270,0.0,0.0,49,0.00,CLR,,0.00,WeatherDisplay:10.37,2013-05-07 03:38:00,
2013-05-06 19:43:00,44.1,26.1,30.12,West,270,0.0,0.0,49,0.00,CLR,,0.00,WeatherDisplay:10.37,2013-05-07 03:43:00,
2013-05-06 19:48:00,44.1,26.1,30.12,WSW,248,0.0,0.0,49,0.00,CLR,,0.00,WeatherDisplay:10.37,2013-05-07 03:48:00,
2013-05-06 19:53:00,44.1,25.6,30.12,SW,225,1.4,1.6,48,0.00,CLR,,0.00,WeatherDisplay:10.37,2013-05-07 03:53:00,
2013-05-06 19:58:00,43.7,25.3,30.12,WSW,248,0.0,0.0,48,0.00,CLR,,0.00,WeatherDisplay:10.37,2013-05-07 03:58:00,
2013-05-06 20:01:00,43.7,24.2,30.12,West,270,0.0,0.0,46,0.00,CLR,,0.00,WeatherDisplay:10.37,2013-05-07 04:01:00,
2013-05-06 20:02:00,43.7,24.2,30.12,West,270,0.0,0.0,46,0.00,CLR,,0.00,WeatherDisplay:10.37,2013-05-07 04:02:00,
2013-05-06 20:04:00,43.5,24.1,30.12,West,270,0.0,0.0,46,0.00,CLR,,0.00,WeatherDisplay:10.37,2013-05-07 04:04:00,
2013-05-06 20:09:00,43.3,22.9,30.12,West,270,0.0,0.0,44,0.00,CLR,,0.00,WeatherDisplay:10.37,2013-05-07 04:09:00,
2013-05-06 20:10:00,43.2,22.7,30.12,West,270,0.0,0.0,44,0.00,CLR,,0.00,WeatherDisplay:10.37,2013-05-07 04:10:00,
2013-05-06 20:13:00,43.2,22.7,30.12,West,270,0.0,0.0,44,0.00,CLR,,0.00,WeatherDisplay:10.37,2013-05-07 04:13:00,
2013-05-06 20:18:00,42.8,22.4,30.12,West,270,0.0,0.0,44,0.00,CLR,,0.00,WeatherDisplay:10.37,2013-05-07 04:18:00,
2013-05-06 20:23:00,42.4,24.1,30.12,West,270,0.0,0.0,48,0.00,CLR,,0.00,WeatherDisplay:10.37,2013-05-07 04:23:00,
2013-05-06 20:28:00,42.4,24.1,30.12,West,270,0.0,0.0,48,0.00,CLR,,0.00,WeatherDisplay:10.37,2013-05-07 04:28:00,
2013-05-06 20:33:00,42.3,23.9,30.12,WNW,292,0.0,0.9,48,0.00,CLR,,0.00,WeatherDisplay:10.37,2013-05-07 04:33:00,
2013-05-06 20:38:00,42.1,24.8,30.12,WNW,292,0.0,0.0,50,0.00,CLR,,0.00,WeatherDisplay:10.37,2013-05-07 04:38:00,
2013-05-06 20:43:00,42.1,24.8,30.12,WNW,292,0.0,0.0,50,0.00,CLR,,0.00,WeatherDisplay:10.37,2013-05-07 04:43:00,
2013-05-06 20:48:00,42.3,25.4,30.12,WNW,292,0.0,0.0,51,0.00,CLR,,0.00,WeatherDisplay:10.37,2013-05-07 04:48:00,
2013-05-06 20:53:00,42.3,25.4,30.12,WNW,292,0.0,0.0,51,0.00,CLR,,0.00,WeatherDisplay:10.37,2013-05-07 04:53:00,
2013-05-06 20:58:00,42.3,25.4,30.12,NW,315,0.0,0.0,51,0.00,CLR,,0.00,WeatherDisplay:10.37,2013-05-07 04:58:00,
2013-05-06 21:04:00,42.3,25.4,30.12,NW,315,0.0,0.0,51,0.00,CLR,,0.00,WeatherDisplay:10.37,2013-05-07 05:04:00,
2013-05-06 21:09:00,41.7,25.4,30.12,NW,315,0.0,0.0,52,0.00,CLR,,0.00,WeatherDisplay:10.37,2013-05-07 05:09:00,
2013-05-06 21:14:00,41.2,24.9,30.12,NW,315,0.0,0.0,52,0.00,CLR,,0.00,WeatherDisplay:10.37,2013-05-07 05:14:00,
2013-05-06 21:19:00,41.0,24.7,30.12,NNW,338,0.0,0.0,52,0.00,CLR,,0.00,WeatherDisplay:10.37,2013-05-07 05:19:00,
2013-05-06 21:24:00,41.0,25.2,30.12,NNW,338,0.0,0.0,53,0.00,CLR,,0.00,WeatherDisplay:10.37,2013-05-07 05:24:00,
2013-05-06 21:29:00,41.0,25.2,30.15,NNW,338,0.0,0.0,53,0.00,CLR,,0.00,WeatherDisplay:10.37,2013-05-07 05:29:00,
2013-05-06 21:34:00,41.0,25.2,30.15,NNW,338,0.0,0.0,53,0.00,CLR,,0.00,WeatherDisplay:10.37,2013-05-07 05:34:00,
2013-05-06 21:39:00,41.2,25.3,30.15,NNW,338,0.0,0.0,53,0.00,CLR,,0.00,WeatherDisplay:10.37,2013-05-07 05:39:00,
2013-05-06 21:44:00,41.0,25.2,30.15,NNW,338,0.0,0.0,53,0.00,CLR,,0.00,WeatherDisplay:10.37,2013-05-07 05:44:00,
2013-05-06 21:49:00,40.5,26.0,30.15,NNW,338,0.0,0.0,56,0.00,CLR,,0.00,WeatherDisplay:10.37,2013-05-07 05:49:00,
2013-05-06 21:54:00,39.9,25.9,30.15,NNE,22,0.0,0.0,57,0.00,CLR,,0.00,WeatherDisplay:10.37,2013-05-07 05:54:00,
2013-05-06 21:59:00,39.4,25.4,30.15,NNE,22,0.0,0.0,57,0.00,CLR,,0.00,WeatherDisplay:10.37,2013-05-07 05:59:00,
2013-05-06 22:04:00,39.2,25.2,30.15,NNE,22,0.0,0.0,57,0.00,CLR,,0.00,WeatherDisplay:10.37,2013-05-07 06:04:00,
2013-05-06 22:09:00,39.2,25.6,30.15,NNE,22,0.0,0.0,58,0.00,CLR,,0.00,WeatherDisplay:10.37,2013-05-07 06:09:00,
2013-05-06 22:14:00,39.4,26.6,30.15,North,0,0.0,0.0,60,0.00,CLR,,0.00,WeatherDisplay:10.37,2013-05-07 06:14:00,
2013-05-06 22:19:00,39.2,26.5,30.15,North,0,0.0,0.0,60,0.00,CLR,,0.00,WeatherDisplay:10.37,2013-05-07 06:19:00,
2013-05-06 22:24:00,38.7,26.4,30.15,North,0,0.0,0.0,61,0.00,CLR,,0.00,WeatherDisplay:10.37,2013-05-07 06:24:00,
2013-05-06 22:29:00,38.5,26.2,30.15,North,0,0.0,0.0,61,0.00,CLR,,0.00,WeatherDisplay:10.37,2013-05-07 06:29:00,
2013-05-06 22:34:00,38.7,27.1,30.15,North,0,0.0,0.0,63,0.00,CLR,,0.00,WeatherDisplay:10.37,2013-05-07 06:34:00,
2013-05-06 22:39:00,38.5,26.6,30.15,North,0,0.0,0.0,62,0.00,CLR,,0.00,WeatherDisplay:10.37,2013-05-07 06:39:00,
2013-05-06 22:44:00,38.1,26.2,30.15,North,0,0.0,0.0,62,0.00,CLR,,0.00,WeatherDisplay:10.37,2013-05-07 06:44:00,
2013-05-06 22:49:00,37.9,26.1,30.15,North,0,0.0,0.0,62,0.00,CLR,,0.00,WeatherDisplay:10.37,2013-05-07 06:49:00,
2013-05-06 22:54:00,37.6,25.7,30.15,North,0,0.0,0.0,62,0.00,CLR,,0.00,WeatherDisplay:10.37,2013-05-07 06:54:00,
2013-05-06 22:59:00,37.2,25.4,30.15,North,0,0.0,0.0,62,0.00,CLR,,0.00,WeatherDisplay:10.37,2013-05-07 06:59:00,
2013-05-06 23:04:00,36.9,25.4,30.15,North,0,0.0,0.0,63,0.00,CLR,,0.00,WeatherDisplay:10.37,2013-05-07 07:04:00,
2013-05-06 23:09:00,37.2,26.9,30.15,North,0,0.0,0.0,66,0.00,CLR,,0.00,WeatherDisplay:10.37,2013-05-07 07:09:00,
2013-05-06 23:14:00,37.0,26.0,30.15,North,0,0.0,0.0,64,0.00,CLR,,0.00,WeatherDisplay:10.37,2013-05-07 07:14:00,
2013-05-06 23:19:00,37.0,26.7,30.15,North,0,0.0,0.0,66,0.00,CLR,,0.00,WeatherDisplay:10.37,2013-05-07 07:19:00,
2013-05-06 23:24:00,36.7,26.0,30.15,North,0,0.0,0.0,65,0.00,CLR,,0.00,WeatherDisplay:10.37,2013-05-07 07:24:00,
2013-05-06 23:29:00,36.3,25.7,30.15,West,270,0.0,0.0,65,0.00,CLR,,0.00,WeatherDisplay:10.37,2013-05-07 07:29:00,
2013-05-06 23:34:00,36.0,25.3,30.15,SW,225,0.0,0.0,65,0.00,CLR,,0.00,WeatherDisplay:10.37,2013-05-07 07:34:00,
2013-05-06 23:39:00,35.8,25.2,30.15,SW,225,0.0,0.0,65,0.00,CLR,,0.00,WeatherDisplay:10.37,2013-05-07 07:39:00,
2013-05-06 23:44:00,35.6,25.0,30.15,SW,225,0.0,0.0,65,0.00,CLR,,0.00,WeatherDisplay:10.37,2013-05-07 07:44:00,
2013-05-06 23:49:00,35.2,25.0,30.15,SW,225,0.0,0.0,66,0.00,CLR,,0.00,WeatherDisplay:10.37,2013-05-07 07:49:00,
2013-05-06 23:54:00,35.1,24.8,30.15,SW,225,0.0,0.0,66,0.00,CLR,,0.00,WeatherDisplay:10.37,2013-05-07 07:54:00,
2013-05-06 23:59:00,34.9,25.0,30.15,SW,225,0.0,0.0,67,0.00,CLR,,0.00,WeatherDisplay:10.37,2013-05-07 07:59:00,